sensor_id;sensor_type;location;lat;lon;timestamp;P1;durP1;ratioP1;P2;durP2;ratioP2
7667;SDS011;3876;42.204;24.686;2023-09-18T00:02:07;1.10;;;1.10;;
7667;SDS011;3876;42.204;24.686;2023-09-18T00:04:34;1.40;;;1.40;;
7667;SDS011;3876;42.204;24.686;2023-09-18T00:07:00;1.10;;;1.00;;
7667;SDS011;3876;42.204;24.686;2023-09-18T00:09:27;0.90;;;0.90;;
7667;SDS011;3876;42.204;24.686;2023-09-18T00:11:54;1.20;;;1.20;;
7667;SDS011;3876;42.204;24.686;2023-09-18T00:14:21;1.13;;;1.10;;
7667;SDS011;3876;42.204;24.686;2023-09-18T00:16:49;1.07;;;1.07;;
7667;SDS011;3876;42.204;24.686;2023-09-18T00:19:17;1.03;;;1.03;;
7667;SDS011;3876;42.204;24.686;2023-09-18T00:21:43;1.20;;;1.20;;
7667;SDS011;3876;42.204;24.686;2023-09-18T00:24:10;1.17;;;1.17;;
7667;SDS011;3876;42.204;24.686;2023-09-18T00:26:37;1.47;;;1.47;;
7667;SDS011;3876;42.204;24.686;2023-09-18T00:29:04;1.77;;;1.20;;
7667;SDS011;3876;42.204;24.686;2023-09-18T00:31:30;1.50;;;1.40;;
7667;SDS011;3876;42.204;24.686;2023-09-18T00:33:58;1.20;;;1.17;;
7667;SDS011;3876;42.204;24.686;2023-09-18T00:36:25;1.30;;;1.30;;
7667;SDS011;3876;42.204;24.686;2023-09-18T00:38:52;1.40;;;1.30;;
7667;SDS011;3876;42.204;24.686;2023-09-18T00:41:19;1.53;;;1.50;;
7667;SDS011;3876;42.204;24.686;2023-09-18T00:43:45;0.90;;;0.90;;
7667;SDS011;3876;42.204;24.686;2023-09-18T00:46:12;1.07;;;1.07;;
7667;SDS011;3876;42.204;24.686;2023-09-18T00:48:39;1.33;;;1.33;;
7667;SDS011;3876;42.204;24.686;2023-09-18T00:51:07;1.27;;;1.23;;
7667;SDS011;3876;42.204;24.686;2023-09-18T00:53:35;1.10;;;1.00;;
7667;SDS011;3876;42.204;24.686;2023-09-18T00:56:04;1.00;;;1.00;;
7667;SDS011;3876;42.204;24.686;2023-09-18T00:58:31;1.50;;;1.40;;
7667;SDS011;3876;42.204;24.686;2023-09-18T01:00:59;5.80;;;0.90;;
7667;SDS011;3876;42.204;24.686;2023-09-18T01:03:26;1.50;;;1.40;;
7667;SDS011;3876;42.204;24.686;2023-09-18T01:05:53;1.00;;;1.00;;
7667;SDS011;3876;42.204;24.686;2023-09-18T01:08:22;1.03;;;1.03;;
7667;SDS011;3876;42.204;24.686;2023-09-18T01:10:53;0.90;;;0.90;;
7667;SDS011;3876;42.204;24.686;2023-09-18T01:13:28;1.27;;;1.00;;
7667;SDS011;3876;42.204;24.686;2023-09-18T01:16:02;1.67;;;1.57;;
7667;SDS011;3876;42.204;24.686;2023-09-18T01:18:34;1.20;;;1.20;;
7667;SDS011;3876;42.204;24.686;2023-09-18T01:21:01;0.77;;;0.77;;
7667;SDS011;3876;42.204;24.686;2023-09-18T01:23:29;1.30;;;1.20;;
7667;SDS011;3876;42.204;24.686;2023-09-18T01:25:56;1.17;;;1.17;;
7667;SDS011;3876;42.204;24.686;2023-09-18T01:28:22;1.10;;;1.10;;
7667;SDS011;3876;42.204;24.686;2023-09-18T01:30:49;1.37;;;1.37;;
7667;SDS011;3876;42.204;24.686;2023-09-18T01:33:16;0.80;;;0.80;;
7667;SDS011;3876;42.204;24.686;2023-09-18T01:35:45;1.40;;;1.40;;
7667;SDS011;3876;42.204;24.686;2023-09-18T01:38:12;2.90;;;1.70;;
7667;SDS011;3876;42.204;24.686;2023-09-18T01:40:41;1.20;;;1.20;;
7667;SDS011;3876;42.204;24.686;2023-09-18T01:43:08;1.53;;;1.43;;
7667;SDS011;3876;42.204;24.686;2023-09-18T01:45:35;1.60;;;1.60;;
7667;SDS011;3876;42.204;24.686;2023-09-18T01:48:04;1.20;;;1.20;;
7667;SDS011;3876;42.204;24.686;2023-09-18T01:50:31;1.97;;;1.87;;
7667;SDS011;3876;42.204;24.686;2023-09-18T01:52:58;1.60;;;1.30;;
7667;SDS011;3876;42.204;24.686;2023-09-18T01:55:25;4.47;;;1.77;;
7667;SDS011;3876;42.204;24.686;2023-09-18T01:57:55;1.17;;;1.07;;
7667;SDS011;3876;42.204;24.686;2023-09-18T02:00:22;2.50;;;1.53;;
7667;SDS011;3876;42.204;24.686;2023-09-18T02:02:49;2.07;;;1.43;;
7667;SDS011;3876;42.204;24.686;2023-09-18T02:05:16;3.90;;;1.40;;
7667;SDS011;3876;42.204;24.686;2023-09-18T02:07:42;1.07;;;1.07;;
7667;SDS011;3876;42.204;24.686;2023-09-18T02:10:09;0.90;;;0.90;;
7667;SDS011;3876;42.204;24.686;2023-09-18T02:12:37;2.53;;;1.00;;
7667;SDS011;3876;42.204;24.686;2023-09-18T02:15:06;1.50;;;1.40;;
7667;SDS011;3876;42.204;24.686;2023-09-18T02:17:36;1.47;;;1.37;;
7667;SDS011;3876;42.204;24.686;2023-09-18T02:20:03;1.43;;;1.43;;
7667;SDS011;3876;42.204;24.686;2023-09-18T02:22:36;2.20;;;1.13;;
7667;SDS011;3876;42.204;24.686;2023-09-18T02:25:05;1.20;;;1.20;;
7667;SDS011;3876;42.204;24.686;2023-09-18T02:27:32;1.20;;;1.20;;
7667;SDS011;3876;42.204;24.686;2023-09-18T02:29:59;0.97;;;0.97;;
7667;SDS011;3876;42.204;24.686;2023-09-18T02:32:27;1.20;;;1.20;;
7667;SDS011;3876;42.204;24.686;2023-09-18T02:34:54;3.03;;;0.87;;
7667;SDS011;3876;42.204;24.686;2023-09-18T02:37:20;1.30;;;1.30;;
7667;SDS011;3876;42.204;24.686;2023-09-18T02:39:47;2.47;;;1.07;;
7667;SDS011;3876;42.204;24.686;2023-09-18T02:42:14;5.10;;;0.97;;
7667;SDS011;3876;42.204;24.686;2023-09-18T02:44:41;0.97;;;0.97;;
7667;SDS011;3876;42.204;24.686;2023-09-18T02:47:07;1.60;;;1.50;;
7667;SDS011;3876;42.204;24.686;2023-09-18T02:49:36;1.27;;;1.20;;
7667;SDS011;3876;42.204;24.686;2023-09-18T02:52:02;1.00;;;1.00;;
7667;SDS011;3876;42.204;24.686;2023-09-18T02:54:30;1.20;;;1.20;;
7667;SDS011;3876;42.204;24.686;2023-09-18T02:56:56;1.43;;;1.33;;
7667;SDS011;3876;42.204;24.686;2023-09-18T02:59:24;2.63;;;1.40;;
7667;SDS011;3876;42.204;24.686;2023-09-18T03:01:51;1.70;;;1.60;;
7667;SDS011;3876;42.204;24.686;2023-09-18T03:04:18;0.73;;;0.73;;
7667;SDS011;3876;42.204;24.686;2023-09-18T03:06:47;1.10;;;1.10;;
7667;SDS011;3876;42.204;24.686;2023-09-18T03:09:14;5.60;;;1.63;;
7667;SDS011;3876;42.204;24.686;2023-09-18T03:11:41;2.80;;;1.20;;
7667;SDS011;3876;42.204;24.686;2023-09-18T03:14:09;1.10;;;1.10;;
7667;SDS011;3876;42.204;24.686;2023-09-18T03:16:35;1.60;;;1.47;;
7667;SDS011;3876;42.204;24.686;2023-09-18T03:19:02;1.27;;;1.27;;
7667;SDS011;3876;42.204;24.686;2023-09-18T03:21:29;1.10;;;1.10;;
7667;SDS011;3876;42.204;24.686;2023-09-18T03:23:59;2.63;;;1.13;;
7667;SDS011;3876;42.204;24.686;2023-09-18T03:26:26;1.37;;;1.27;;
7667;SDS011;3876;42.204;24.686;2023-09-18T03:28:53;1.63;;;1.53;;
7667;SDS011;3876;42.204;24.686;2023-09-18T03:31:20;3.33;;;1.10;;
7667;SDS011;3876;42.204;24.686;2023-09-18T03:33:46;3.43;;;1.77;;
7667;SDS011;3876;42.204;24.686;2023-09-18T03:36:13;1.43;;;1.33;;
7667;SDS011;3876;42.204;24.686;2023-09-18T03:38:40;1.43;;;1.33;;
7667;SDS011;3876;42.204;24.686;2023-09-18T03:41:08;1.40;;;1.30;;
7667;SDS011;3876;42.204;24.686;2023-09-18T03:43:35;1.17;;;1.10;;
7667;SDS011;3876;42.204;24.686;2023-09-18T03:46:04;1.30;;;1.30;;
7667;SDS011;3876;42.204;24.686;2023-09-18T03:48:31;1.30;;;1.20;;
7667;SDS011;3876;42.204;24.686;2023-09-18T03:51:02;1.30;;;1.20;;
7667;SDS011;3876;42.204;24.686;2023-09-18T03:53:29;1.53;;;1.43;;
7667;SDS011;3876;42.204;24.686;2023-09-18T03:55:57;2.73;;;1.10;;
7667;SDS011;3876;42.204;24.686;2023-09-18T03:58:25;4.20;;;1.40;;
7667;SDS011;3876;42.204;24.686;2023-09-18T04:00:52;1.10;;;1.10;;
7667;SDS011;3876;42.204;24.686;2023-09-18T04:03:19;1.50;;;1.40;;
7667;SDS011;3876;42.204;24.686;2023-09-18T04:05:45;1.07;;;1.00;;
7667;SDS011;3876;42.204;24.686;2023-09-18T04:08:12;1.67;;;1.57;;
7667;SDS011;3876;42.204;24.686;2023-09-18T04:10:39;1.10;;;1.10;;
7667;SDS011;3876;42.204;24.686;2023-09-18T04:13:06;1.07;;;1.07;;
7667;SDS011;3876;42.204;24.686;2023-09-18T04:15:35;1.77;;;1.40;;
7667;SDS011;3876;42.204;24.686;2023-09-18T04:18:03;2.60;;;1.80;;
7667;SDS011;3876;42.204;24.686;2023-09-18T04:20:30;1.20;;;1.20;;
7667;SDS011;3876;42.204;24.686;2023-09-18T04:25:43;1.27;;;1.27;;
7667;SDS011;3876;42.204;24.686;2023-09-18T04:28:11;1.30;;;1.20;;
7667;SDS011;3876;42.204;24.686;2023-09-18T04:30:39;0.90;;;0.90;;
7667;SDS011;3876;42.204;24.686;2023-09-18T04:33:06;1.47;;;1.40;;
7667;SDS011;3876;42.204;24.686;2023-09-18T04:35:33;1.50;;;1.40;;
7667;SDS011;3876;42.204;24.686;2023-09-18T04:37:59;2.83;;;1.40;;
7667;SDS011;3876;42.204;24.686;2023-09-18T04:40:26;1.40;;;1.30;;
7667;SDS011;3876;42.204;24.686;2023-09-18T04:42:57;1.57;;;1.33;;
7667;SDS011;3876;42.204;24.686;2023-09-18T04:45:24;1.33;;;1.23;;
7667;SDS011;3876;42.204;24.686;2023-09-18T04:47:52;1.10;;;1.10;;
7667;SDS011;3876;42.204;24.686;2023-09-18T04:50:19;1.37;;;1.27;;
7667;SDS011;3876;42.204;24.686;2023-09-18T04:52:46;1.30;;;1.20;;
7667;SDS011;3876;42.204;24.686;2023-09-18T04:55:13;1.17;;;1.10;;
7667;SDS011;3876;42.204;24.686;2023-09-18T04:57:40;1.80;;;1.10;;
7667;SDS011;3876;42.204;24.686;2023-09-18T05:00:07;1.70;;;1.60;;
7667;SDS011;3876;42.204;24.686;2023-09-18T05:02:38;1.90;;;1.40;;
7667;SDS011;3876;42.204;24.686;2023-09-18T05:05:07;1.30;;;1.20;;
7667;SDS011;3876;42.204;24.686;2023-09-18T05:07:35;1.63;;;1.53;;
7667;SDS011;3876;42.204;24.686;2023-09-18T05:10:02;7.40;;;1.70;;
7667;SDS011;3876;42.204;24.686;2023-09-18T05:12:29;1.70;;;1.60;;
7667;SDS011;3876;42.204;24.686;2023-09-18T05:14:57;0.90;;;0.90;;
7667;SDS011;3876;42.204;24.686;2023-09-18T05:17:39;1.10;;;1.10;;
7667;SDS011;3876;42.204;24.686;2023-09-18T05:20:13;1.30;;;1.30;;
7667;SDS011;3876;42.204;24.686;2023-09-18T05:22:42;2.80;;;1.67;;
7667;SDS011;3876;42.204;24.686;2023-09-18T05:25:10;1.17;;;1.10;;
7667;SDS011;3876;42.204;24.686;2023-09-18T05:27:37;1.37;;;1.27;;
7667;SDS011;3876;42.204;24.686;2023-09-18T05:30:10;1.50;;;1.40;;
7667;SDS011;3876;42.204;24.686;2023-09-18T05:32:38;1.33;;;1.33;;
7667;SDS011;3876;42.204;24.686;2023-09-18T05:35:05;1.50;;;1.50;;
7667;SDS011;3876;42.204;24.686;2023-09-18T05:37:36;3.00;;;2.10;;
7667;SDS011;3876;42.204;24.686;2023-09-18T05:40:04;1.77;;;1.60;;
7667;SDS011;3876;42.204;24.686;2023-09-18T05:42:32;1.40;;;1.40;;
7667;SDS011;3876;42.204;24.686;2023-09-18T05:44:59;3.33;;;1.27;;
7667;SDS011;3876;42.204;24.686;2023-09-18T05:47:25;2.20;;;1.97;;
7667;SDS011;3876;42.204;24.686;2023-09-18T05:49:54;2.00;;;1.90;;
7667;SDS011;3876;42.204;24.686;2023-09-18T05:52:22;2.67;;;2.13;;
7667;SDS011;3876;42.204;24.686;2023-09-18T05:54:51;3.33;;;1.63;;
7667;SDS011;3876;42.204;24.686;2023-09-18T05:57:18;3.93;;;2.20;;
7667;SDS011;3876;42.204;24.686;2023-09-18T05:59:45;1.87;;;1.87;;
7667;SDS011;3876;42.204;24.686;2023-09-18T06:02:11;2.37;;;1.83;;
7667;SDS011;3876;42.204;24.686;2023-09-18T06:04:38;1.87;;;1.60;;
7667;SDS011;3876;42.204;24.686;2023-09-18T06:07:06;1.80;;;1.77;;
7667;SDS011;3876;42.204;24.686;2023-09-18T06:09:33;1.40;;;1.33;;
7667;SDS011;3876;42.204;24.686;2023-09-18T06:12:01;1.43;;;1.33;;
7667;SDS011;3876;42.204;24.686;2023-09-18T06:14:30;1.20;;;1.20;;
7667;SDS011;3876;42.204;24.686;2023-09-18T06:16:56;1.43;;;1.33;;
7667;SDS011;3876;42.204;24.686;2023-09-18T06:19:23;1.30;;;1.30;;
7667;SDS011;3876;42.204;24.686;2023-09-18T06:21:50;1.37;;;1.27;;
7667;SDS011;3876;42.204;24.686;2023-09-18T06:24:17;1.80;;;1.70;;
7667;SDS011;3876;42.204;24.686;2023-09-18T06:26:43;1.50;;;1.40;;
7667;SDS011;3876;42.204;24.686;2023-09-18T06:29:11;1.67;;;1.57;;
7667;SDS011;3876;42.204;24.686;2023-09-18T06:31:38;1.70;;;1.33;;
7667;SDS011;3876;42.204;24.686;2023-09-18T06:34:05;1.27;;;1.27;;
7667;SDS011;3876;42.204;24.686;2023-09-18T06:36:32;0.80;;;0.80;;
7667;SDS011;3876;42.204;24.686;2023-09-18T06:38:59;1.27;;;1.27;;
7667;SDS011;3876;42.204;24.686;2023-09-18T06:41:27;1.23;;;1.23;;
7667;SDS011;3876;42.204;24.686;2023-09-18T06:43:54;2.40;;;1.40;;
7667;SDS011;3876;42.204;24.686;2023-09-18T06:46:23;1.30;;;1.30;;
7667;SDS011;3876;42.204;24.686;2023-09-18T06:48:50;2.77;;;1.20;;
7667;SDS011;3876;42.204;24.686;2023-09-18T06:51:18;1.50;;;1.40;;
7667;SDS011;3876;42.204;24.686;2023-09-18T06:53:44;1.63;;;1.53;;
7667;SDS011;3876;42.204;24.686;2023-09-18T06:56:11;1.30;;;1.20;;
7667;SDS011;3876;42.204;24.686;2023-09-18T06:58:38;1.27;;;1.27;;
7667;SDS011;3876;42.204;24.686;2023-09-18T07:01:05;1.90;;;1.37;;
7667;SDS011;3876;42.204;24.686;2023-09-18T07:03:35;1.27;;;1.27;;
7667;SDS011;3876;42.204;24.686;2023-09-18T07:06:05;1.20;;;1.20;;
7667;SDS011;3876;42.204;24.686;2023-09-18T07:08:31;1.70;;;1.60;;
7667;SDS011;3876;42.204;24.686;2023-09-18T07:10:58;1.13;;;1.13;;
7667;SDS011;3876;42.204;24.686;2023-09-18T07:13:26;1.00;;;1.00;;
7667;SDS011;3876;42.204;24.686;2023-09-18T07:15:53;1.40;;;1.30;;
7667;SDS011;3876;42.204;24.686;2023-09-18T07:18:19;1.10;;;1.10;;
7667;SDS011;3876;42.204;24.686;2023-09-18T07:20:47;1.20;;;1.10;;
7667;SDS011;3876;42.204;24.686;2023-09-18T07:23:14;0.90;;;0.90;;
7667;SDS011;3876;42.204;24.686;2023-09-18T07:25:41;1.10;;;1.10;;
7667;SDS011;3876;42.204;24.686;2023-09-18T07:28:09;0.97;;;0.90;;
7667;SDS011;3876;42.204;24.686;2023-09-18T07:30:41;4.33;;;1.37;;
7667;SDS011;3876;42.204;24.686;2023-09-18T07:33:08;0.70;;;0.70;;
7667;SDS011;3876;42.204;24.686;2023-09-18T07:35:35;1.07;;;1.07;;
7667;SDS011;3876;42.204;24.686;2023-09-18T07:38:04;1.00;;;1.00;;
7667;SDS011;3876;42.204;24.686;2023-09-18T07:40:31;1.00;;;1.00;;
7667;SDS011;3876;42.204;24.686;2023-09-18T07:42:57;0.93;;;0.93;;
7667;SDS011;3876;42.204;24.686;2023-09-18T07:45:24;0.87;;;0.87;;
7667;SDS011;3876;42.204;24.686;2023-09-18T07:47:51;1.60;;;0.77;;
7667;SDS011;3876;42.204;24.686;2023-09-18T07:50:18;1.97;;;1.87;;
7667;SDS011;3876;42.204;24.686;2023-09-18T07:52:45;0.80;;;0.80;;
7667;SDS011;3876;42.204;24.686;2023-09-18T07:55:13;1.07;;;0.93;;
7667;SDS011;3876;42.204;24.686;2023-09-18T07:57:40;1.63;;;1.10;;
7667;SDS011;3876;42.204;24.686;2023-09-18T08:00:07;1.10;;;1.00;;
7667;SDS011;3876;42.204;24.686;2023-09-18T08:02:37;0.80;;;0.80;;
7667;SDS011;3876;42.204;24.686;2023-09-18T08:05:04;0.80;;;0.80;;
7667;SDS011;3876;42.204;24.686;2023-09-18T08:07:32;0.70;;;0.70;;
7667;SDS011;3876;42.204;24.686;2023-09-18T08:10:00;1.63;;;1.00;;
7667;SDS011;3876;42.204;24.686;2023-09-18T08:12:28;0.70;;;0.70;;
7667;SDS011;3876;42.204;24.686;2023-09-18T08:14:55;1.10;;;1.10;;
7667;SDS011;3876;42.204;24.686;2023-09-18T08:17:24;0.77;;;0.70;;
7667;SDS011;3876;42.204;24.686;2023-09-18T08:19:51;0.80;;;0.80;;
7667;SDS011;3876;42.204;24.686;2023-09-18T08:22:19;0.90;;;0.90;;
7667;SDS011;3876;42.204;24.686;2023-09-18T08:24:47;0.97;;;0.97;;
7667;SDS011;3876;42.204;24.686;2023-09-18T08:27:14;0.80;;;0.80;;
7667;SDS011;3876;42.204;24.686;2023-09-18T08:29:44;1.00;;;1.00;;
7667;SDS011;3876;42.204;24.686;2023-09-18T08:32:11;1.57;;;1.00;;
7667;SDS011;3876;42.204;24.686;2023-09-18T08:34:37;0.90;;;0.90;;
7667;SDS011;3876;42.204;24.686;2023-09-18T08:37:04;0.80;;;0.80;;
7667;SDS011;3876;42.204;24.686;2023-09-18T08:39:31;1.70;;;0.80;;
7667;SDS011;3876;42.204;24.686;2023-09-18T08:41:59;0.70;;;0.70;;
7667;SDS011;3876;42.204;24.686;2023-09-18T08:44:29;0.70;;;0.70;;
7667;SDS011;3876;42.204;24.686;2023-09-18T08:46:58;0.90;;;0.90;;
7667;SDS011;3876;42.204;24.686;2023-09-18T08:49:25;1.03;;;1.03;;
7667;SDS011;3876;42.204;24.686;2023-09-18T08:51:54;0.67;;;0.67;;
7667;SDS011;3876;42.204;24.686;2023-09-18T08:54:22;0.97;;;0.90;;
7667;SDS011;3876;42.204;24.686;2023-09-18T08:56:50;0.70;;;0.70;;
7667;SDS011;3876;42.204;24.686;2023-09-18T08:59:17;0.63;;;0.63;;
7667;SDS011;3876;42.204;24.686;2023-09-18T09:01:46;0.97;;;0.70;;
7667;SDS011;3876;42.204;24.686;2023-09-18T09:04:14;0.80;;;0.80;;
7667;SDS011;3876;42.204;24.686;2023-09-18T09:06:41;0.90;;;0.90;;
7667;SDS011;3876;42.204;24.686;2023-09-18T09:09:09;0.57;;;0.57;;
7667;SDS011;3876;42.204;24.686;2023-09-18T09:11:38;0.70;;;0.70;;
7667;SDS011;3876;42.204;24.686;2023-09-18T09:14:08;0.90;;;0.90;;
7667;SDS011;3876;42.204;24.686;2023-09-18T09:16:38;1.10;;;1.10;;
7667;SDS011;3876;42.204;24.686;2023-09-18T09:19:05;0.63;;;0.63;;
7667;SDS011;3876;42.204;24.686;2023-09-18T09:21:40;0.60;;;0.60;;
7667;SDS011;3876;42.204;24.686;2023-09-18T09:24:08;0.80;;;0.80;;
7667;SDS011;3876;42.204;24.686;2023-09-18T09:26:39;0.70;;;0.70;;
7667;SDS011;3876;42.204;24.686;2023-09-18T09:29:15;2.10;;;0.70;;
7667;SDS011;3876;42.204;24.686;2023-09-18T09:31:43;2.93;;;1.10;;
7667;SDS011;3876;42.204;24.686;2023-09-18T09:34:11;0.83;;;0.83;;
7667;SDS011;3876;42.204;24.686;2023-09-18T09:36:52;1.23;;;0.70;;
7667;SDS011;3876;42.204;24.686;2023-09-18T09:39:19;0.73;;;0.73;;
7667;SDS011;3876;42.204;24.686;2023-09-18T09:41:50;0.77;;;0.77;;
7667;SDS011;3876;42.204;24.686;2023-09-18T09:44:17;1.00;;;1.00;;
7667;SDS011;3876;42.204;24.686;2023-09-18T09:46:46;1.17;;;1.10;;
7667;SDS011;3876;42.204;24.686;2023-09-18T09:49:13;0.67;;;0.67;;
7667;SDS011;3876;42.204;24.686;2023-09-18T09:51:41;1.07;;;0.70;;
7667;SDS011;3876;42.204;24.686;2023-09-18T09:54:10;0.77;;;0.77;;
7667;SDS011;3876;42.204;24.686;2023-09-18T09:56:40;1.17;;;0.87;;
7667;SDS011;3876;42.204;24.686;2023-09-18T09:59:08;1.60;;;1.00;;
7667;SDS011;3876;42.204;24.686;2023-09-18T10:01:37;0.97;;;0.90;;
7667;SDS011;3876;42.204;24.686;2023-09-18T10:04:08;0.77;;;0.77;;
7667;SDS011;3876;42.204;24.686;2023-09-18T10:06:36;0.70;;;0.70;;
7667;SDS011;3876;42.204;24.686;2023-09-18T10:09:04;0.83;;;0.83;;
7667;SDS011;3876;42.204;24.686;2023-09-18T10:11:37;1.43;;;1.33;;
7667;SDS011;3876;42.204;24.686;2023-09-18T10:14:08;0.70;;;0.70;;
7667;SDS011;3876;42.204;24.686;2023-09-18T10:16:39;0.73;;;0.73;;
7667;SDS011;3876;42.204;24.686;2023-09-18T10:19:11;0.70;;;0.70;;
7667;SDS011;3876;42.204;24.686;2023-09-18T10:21:50;1.03;;;1.03;;
7667;SDS011;3876;42.204;24.686;2023-09-18T10:24:25;0.90;;;0.90;;
7667;SDS011;3876;42.204;24.686;2023-09-18T10:26:57;0.50;;;0.50;;
7667;SDS011;3876;42.204;24.686;2023-09-18T10:29:25;1.73;;;0.83;;
7667;SDS011;3876;42.204;24.686;2023-09-18T10:31:53;0.80;;;0.80;;
7667;SDS011;3876;42.204;24.686;2023-09-18T10:34:21;1.57;;;0.87;;
7667;SDS011;3876;42.204;24.686;2023-09-18T10:36:50;0.83;;;0.83;;
7667;SDS011;3876;42.204;24.686;2023-09-18T10:39:18;1.17;;;1.00;;
7667;SDS011;3876;42.204;24.686;2023-09-18T10:41:51;0.93;;;0.83;;
7667;SDS011;3876;42.204;24.686;2023-09-18T10:44:20;0.80;;;0.80;;
7667;SDS011;3876;42.204;24.686;2023-09-18T10:46:47;1.20;;;1.20;;
7667;SDS011;3876;42.204;24.686;2023-09-18T10:49:16;4.07;;;1.10;;
7667;SDS011;3876;42.204;24.686;2023-09-18T10:51:44;1.00;;;1.00;;
7667;SDS011;3876;42.204;24.686;2023-09-18T10:54:14;0.90;;;0.90;;
7667;SDS011;3876;42.204;24.686;2023-09-18T10:56:42;0.83;;;0.83;;
7667;SDS011;3876;42.204;24.686;2023-09-18T10:59:09;0.80;;;0.80;;
7667;SDS011;3876;42.204;24.686;2023-09-18T11:01:37;0.80;;;0.80;;
7667;SDS011;3876;42.204;24.686;2023-09-18T11:04:06;0.90;;;0.90;;
7667;SDS011;3876;42.204;24.686;2023-09-18T11:09:31;0.50;;;0.50;;
7667;SDS011;3876;42.204;24.686;2023-09-18T11:12:06;0.63;;;0.63;;
7667;SDS011;3876;42.204;24.686;2023-09-18T11:14:41;0.83;;;0.83;;
7667;SDS011;3876;42.204;24.686;2023-09-18T11:20:06;0.70;;;0.70;;
7667;SDS011;3876;42.204;24.686;2023-09-18T11:22:38;0.60;;;0.60;;
7667;SDS011;3876;42.204;24.686;2023-09-18T11:25:34;0.80;;;0.80;;
7667;SDS011;3876;42.204;24.686;2023-09-18T11:28:02;0.73;;;0.73;;
7667;SDS011;3876;42.204;24.686;2023-09-18T11:30:32;0.77;;;0.77;;
7667;SDS011;3876;42.204;24.686;2023-09-18T11:33:03;0.70;;;0.70;;
7667;SDS011;3876;42.204;24.686;2023-09-18T11:35:31;0.57;;;0.57;;
7667;SDS011;3876;42.204;24.686;2023-09-18T11:38:05;0.60;;;0.60;;
7667;SDS011;3876;42.204;24.686;2023-09-18T11:40:33;0.70;;;0.70;;
7667;SDS011;3876;42.204;24.686;2023-09-18T11:43:18;0.60;;;0.60;;
7667;SDS011;3876;42.204;24.686;2023-09-18T11:45:54;0.80;;;0.80;;
7667;SDS011;3876;42.204;24.686;2023-09-18T11:48:24;1.65;;;0.82;;
7667;SDS011;3876;42.204;24.686;2023-09-18T11:50:53;0.63;;;0.63;;
7667;SDS011;3876;42.204;24.686;2023-09-18T11:53:20;0.60;;;0.60;;
7667;SDS011;3876;42.204;24.686;2023-09-18T11:55:49;0.80;;;0.80;;
7667;SDS011;3876;42.204;24.686;2023-09-18T11:58:16;0.80;;;0.80;;
7667;SDS011;3876;42.204;24.686;2023-09-18T12:00:48;0.63;;;0.63;;
7667;SDS011;3876;42.204;24.686;2023-09-18T12:03:16;0.70;;;0.70;;
7667;SDS011;3876;42.204;24.686;2023-09-18T12:05:53;0.73;;;0.73;;
7667;SDS011;3876;42.204;24.686;2023-09-18T12:08:23;0.50;;;0.50;;
7667;SDS011;3876;42.204;24.686;2023-09-18T12:10:52;0.50;;;0.50;;
7667;SDS011;3876;42.204;24.686;2023-09-18T12:13:19;0.53;;;0.53;;
7667;SDS011;3876;42.204;24.686;2023-09-18T12:15:46;0.73;;;0.73;;
7667;SDS011;3876;42.204;24.686;2023-09-18T12:18:14;0.70;;;0.70;;
7667;SDS011;3876;42.204;24.686;2023-09-18T12:20:45;0.53;;;0.53;;
7667;SDS011;3876;42.204;24.686;2023-09-18T12:23:14;0.80;;;0.80;;
7667;SDS011;3876;42.204;24.686;2023-09-18T12:25:43;0.70;;;0.70;;
7667;SDS011;3876;42.204;24.686;2023-09-18T12:28:13;0.70;;;0.70;;
7667;SDS011;3876;42.204;24.686;2023-09-18T12:30:41;0.80;;;0.80;;
7667;SDS011;3876;42.204;24.686;2023-09-18T12:33:08;0.50;;;0.50;;
7667;SDS011;3876;42.204;24.686;2023-09-18T12:35:35;0.67;;;0.67;;
7667;SDS011;3876;42.204;24.686;2023-09-18T12:38:03;0.73;;;0.73;;
7667;SDS011;3876;42.204;24.686;2023-09-18T12:40:41;0.70;;;0.70;;
7667;SDS011;3876;42.204;24.686;2023-09-18T12:43:11;0.50;;;0.50;;
7667;SDS011;3876;42.204;24.686;2023-09-18T12:45:39;0.60;;;0.60;;
7667;SDS011;3876;42.204;24.686;2023-09-18T12:48:07;0.50;;;0.50;;
7667;SDS011;3876;42.204;24.686;2023-09-18T12:50:35;0.70;;;0.70;;
7667;SDS011;3876;42.204;24.686;2023-09-18T12:53:06;0.90;;;0.90;;
7667;SDS011;3876;42.204;24.686;2023-09-18T12:55:36;0.63;;;0.63;;
7667;SDS011;3876;42.204;24.686;2023-09-18T12:58:04;0.70;;;0.70;;
7667;SDS011;3876;42.204;24.686;2023-09-18T13:00:33;0.67;;;0.67;;
7667;SDS011;3876;42.204;24.686;2023-09-18T13:03:00;0.50;;;0.50;;
7667;SDS011;3876;42.204;24.686;2023-09-18T13:05:29;0.60;;;0.60;;
7667;SDS011;3876;42.204;24.686;2023-09-18T13:08:01;0.80;;;0.80;;
7667;SDS011;3876;42.204;24.686;2023-09-18T13:10:29;0.67;;;0.67;;
7667;SDS011;3876;42.204;24.686;2023-09-18T13:13:13;0.53;;;0.53;;
7667;SDS011;3876;42.204;24.686;2023-09-18T13:15:43;0.73;;;0.73;;
7667;SDS011;3876;42.204;24.686;2023-09-18T13:18:11;0.83;;;0.83;;
7667;SDS011;3876;42.204;24.686;2023-09-18T13:20:38;0.70;;;0.70;;
7667;SDS011;3876;42.204;24.686;2023-09-18T13:23:06;0.90;;;0.90;;
7667;SDS011;3876;42.204;24.686;2023-09-18T13:25:33;0.60;;;0.60;;
7667;SDS011;3876;42.204;24.686;2023-09-18T13:28:05;0.83;;;0.83;;
7667;SDS011;3876;42.204;24.686;2023-09-18T13:30:35;0.93;;;0.73;;
7667;SDS011;3876;42.204;24.686;2023-09-18T13:33:04;0.67;;;0.67;;
7667;SDS011;3876;42.204;24.686;2023-09-18T13:35:33;0.70;;;0.70;;
7667;SDS011;3876;42.204;24.686;2023-09-18T13:38:00;0.82;;;0.82;;
7667;SDS011;3876;42.204;24.686;2023-09-18T13:40:29;0.60;;;0.60;;
7667;SDS011;3876;42.204;24.686;2023-09-18T13:42:56;3.00;;;1.00;;
7667;SDS011;3876;42.204;24.686;2023-09-18T13:45:24;0.60;;;0.60;;
7667;SDS011;3876;42.204;24.686;2023-09-18T13:47:51;0.87;;;0.87;;
7667;SDS011;3876;42.204;24.686;2023-09-18T13:50:17;0.90;;;0.90;;
7667;SDS011;3876;42.204;24.686;2023-09-18T13:52:44;0.80;;;0.80;;
7667;SDS011;3876;42.204;24.686;2023-09-18T13:55:11;0.57;;;0.57;;
7667;SDS011;3876;42.204;24.686;2023-09-18T13:57:38;1.83;;;0.83;;
7667;SDS011;3876;42.204;24.686;2023-09-18T14:00:06;0.70;;;0.70;;
7667;SDS011;3876;42.204;24.686;2023-09-18T14:02:37;0.90;;;0.90;;
7667;SDS011;3876;42.204;24.686;2023-09-18T14:05:04;0.70;;;0.70;;
7667;SDS011;3876;42.204;24.686;2023-09-18T14:07:31;1.07;;;1.07;;
7667;SDS011;3876;42.204;24.686;2023-09-18T14:09:58;0.80;;;0.80;;
7667;SDS011;3876;42.204;24.686;2023-09-18T14:12:29;0.80;;;0.80;;
7667;SDS011;3876;42.204;24.686;2023-09-18T14:14:57;1.03;;;1.03;;
7667;SDS011;3876;42.204;24.686;2023-09-18T14:17:25;0.90;;;0.90;;
7667;SDS011;3876;42.204;24.686;2023-09-18T14:19:53;0.90;;;0.90;;
7667;SDS011;3876;42.204;24.686;2023-09-18T14:22:19;0.80;;;0.80;;
7667;SDS011;3876;42.204;24.686;2023-09-18T14:24:46;0.70;;;0.70;;
7667;SDS011;3876;42.204;24.686;2023-09-18T14:27:13;0.93;;;0.60;;
7667;SDS011;3876;42.204;24.686;2023-09-18T14:29:40;0.73;;;0.73;;
7667;SDS011;3876;42.204;24.686;2023-09-18T14:32:06;0.80;;;0.80;;
7667;SDS011;3876;42.204;24.686;2023-09-18T14:34:33;1.07;;;0.97;;
7667;SDS011;3876;42.204;24.686;2023-09-18T14:37:02;0.70;;;0.70;;
7667;SDS011;3876;42.204;24.686;2023-09-18T14:39:30;0.93;;;0.87;;
7667;SDS011;3876;42.204;24.686;2023-09-18T14:41:56;1.20;;;0.97;;
7667;SDS011;3876;42.204;24.686;2023-09-18T14:44:24;1.10;;;1.10;;
7667;SDS011;3876;42.204;24.686;2023-09-18T14:46:52;0.60;;;0.60;;
7667;SDS011;3876;42.204;24.686;2023-09-18T14:49:19;0.87;;;0.87;;
7667;SDS011;3876;42.204;24.686;2023-09-18T14:51:46;0.80;;;0.70;;
7667;SDS011;3876;42.204;24.686;2023-09-18T14:54:16;0.80;;;0.80;;
7667;SDS011;3876;42.204;24.686;2023-09-18T14:56:42;3.00;;;0.80;;
7667;SDS011;3876;42.204;24.686;2023-09-18T14:59:11;1.50;;;0.80;;
7667;SDS011;3876;42.204;24.686;2023-09-18T15:01:38;0.87;;;0.87;;
7667;SDS011;3876;42.204;24.686;2023-09-18T15:04:08;0.50;;;0.50;;
7667;SDS011;3876;42.204;24.686;2023-09-18T15:06:35;0.70;;;0.70;;
7667;SDS011;3876;42.204;24.686;2023-09-18T15:09:02;0.90;;;0.90;;
7667;SDS011;3876;42.204;24.686;2023-09-18T15:11:30;0.97;;;0.97;;
7667;SDS011;3876;42.204;24.686;2023-09-18T15:13:57;0.97;;;0.97;;
7667;SDS011;3876;42.204;24.686;2023-09-18T15:16:24;0.60;;;0.60;;